Time;durP1;ratioP1;P1;durP2;ratioP2;P2;SDS_P1;SDS_P2;PMS_P1;PMS_P2;Temp;Humidity;BMP_temperature;BMP_pressure;BME280_temperature;BME280_humidity;BME280_pressure;Samples;Min_cycle;Max_cycle;Signal;HPM_P1;HPM_P2
2021/04/20 00:01:52;;;;;;;2.20;0.77;;;;;;;5.34;100.00;97010.47;4970506;28;20124;-84
2021/04/20 00:04:17;;;;;;;1.60;1.50;;;;;;;5.35;100.00;97009.56;4969546;28;20030;-83
2021/04/20 00:06:43;;;;;;;3.75;2.63;;;;;;;5.34;100.00;97000.72;4969319;28;20030;-84
2021/04/20 00:09:09;;;;;;;1.60;1.10;;;;;;;5.34;100.00;97015.78;4987421;28;20041;-84
2021/04/20 00:11:39;;;;;;;2.80;1.38;;;;;;;5.18;100.00;97004.22;4967805;28;20046;-84
2021/04/20 00:14:06;;;;;;;1.65;1.45;;;;;;;5.06;100.00;96976.53;4997161;28;20569;-84
2021/04/20 00:16:31;;;;;;;2.50;1.88;;;;;;;5.27;100.00;97009.91;4964292;28;20115;-83
2021/04/20 00:18:57;;;;;;;1.38;1.30;;;;;;;5.23;100.00;97018.94;4997065;28;20026;-83
2021/04/20 00:21:22;;;;;;;1.38;0.90;;;;;;;5.27;100.00;97014.34;4981392;28;20022;-84
2021/04/20 00:23:48;;;;;;;0.70;0.70;;;;;;;5.30;100.00;97015.06;4979632;28;20030;-83
2021/04/20 00:26:13;;;;;;;1.10;0.95;;;;;;;5.32;100.00;97020.31;4965096;28;20045;-84
2021/04/20 00:28:39;;;;;;;1.42;1.33;;;;;;;5.22;100.00;97005.78;4981991;28;20029;-83
2021/04/20 00:31:05;;;;;;;2.25;2.05;;;;;;;5.26;100.00;97016.13;4981946;28;20026;-83
2021/04/20 00:33:30;;;;;;;1.38;1.27;;;;;;;5.22;100.00;97013.72;4981973;28;20022;-83
2021/04/20 00:35:56;;;;;;;1.25;1.15;;;;;;;5.06;100.00;97005.69;4967164;28;20602;-84
2021/04/20 00:38:21;;;;;;;1.10;1.00;;;;;;;5.02;100.00;96995.28;4950357;28;20458;-83
2021/04/20 00:40:47;;;;;;;3.05;1.48;;;;;;;5.11;100.00;97008.09;4941612;28;20459;-83
2021/04/20 00:43:13;;;;;;;1.60;1.33;;;;;;;5.20;100.00;97016.44;4942214;28;20094;-84
2021/04/20 00:45:39;;;;;;;2.90;2.35;;;;;;;5.21;100.00;97012.00;4959127;28;20034;-84
2021/04/20 00:48:06;;;;;;;5.82;2.72;;;;;;;5.22;100.00;97004.00;4962082;28;20055;-84
2021/04/20 00:50:40;;;;;;;4.53;3.22;;;;;;;5.19;100.00;96995.34;4945675;28;20030;-84
2021/04/20 00:53:08;;;;;;;6.63;2.47;;;;;;;5.32;100.00;97015.84;4943766;28;20065;-84
2021/04/20 00:55:34;;;;;;;1.73;1.42;;;;;;;5.29;100.00;97008.03;4944003;28;20034;-84
2021/04/20 00:58:00;;;;;;;3.83;2.88;;;;;;;5.30;100.00;97011.56;4940634;28;20053;-84
2021/04/20 01:00:28;;;;;;;1.15;1.15;;;;;;;5.43;100.00;97025.91;4941186;28;20483;-83
2021/04/20 01:02:54;;;;;;;0.75;0.75;;;;;;;5.49;100.00;97025.63;4941320;28;20566;-83
2021/04/20 01:05:22;;;;;;;1.73;1.63;;;;;;;5.49;100.00;97009.69;4941176;28;20045;-83
2021/04/20 01:07:48;;;;;;;5.50;2.17;;;;;;;5.53;100.00;97019.22;4942422;28;20039;-84
2021/04/20 01:10:14;;;;;;;1.52;1.42;;;;;;;5.50;100.00;97027.34;4949461;28;20097;-83
2021/04/20 01:12:41;;;;;;;1.02;1.00;;;;;;;5.44;100.00;97020.53;4944839;28;20054;-84
2021/04/20 01:15:09;;;;;;;2.85;2.03;;;;;;;5.43;100.00;97021.47;4943540;28;20023;-84
2021/04/20 01:17:35;;;;;;;0.95;0.85;;;;;;;5.45;100.00;97021.38;4959340;28;20061;-84
2021/04/20 01:20:04;;;;;;;0.98;0.98;;;;;;;5.44;100.00;97022.34;4946984;28;20031;-84
2021/04/20 01:22:33;;;;;;;1.48;1.38;;;;;;;5.43;100.00;97015.31;4977179;28;20035;-83
2021/04/20 01:24:59;;;;;;;12.45;1.73;;;;;;;5.38;100.00;97015.53;4974327;28;20046;-83
2021/04/20 01:27:25;;;;;;;0.63;0.60;;;;;;;5.38;100.00;97020.84;4942661;28;20027;-83
2021/04/20 01:29:56;;;;;;;3.20;1.60;;;;;;;5.43;100.00;97023.28;4958906;28;20066;-84
2021/04/20 01:32:26;;;;;;;0.82;0.82;;;;;;;5.47;100.00;97028.31;4947905;28;20023;-83
2021/04/20 01:34:52;;;;;;;2.00;1.80;;;;;;;5.47;100.00;97032.81;4977338;28;20019;-84
2021/04/20 01:37:18;;;;;;;12.50;2.42;;;;;;;5.48;100.00;97018.59;4959933;28;20165;-84
2021/04/20 01:39:45;;;;;;;1.45;1.05;;;;;;;5.48;100.00;97024.75;4943120;28;20087;-84
2021/04/20 01:42:11;;;;;;;2.55;1.83;;;;;;;5.43;100.00;97026.78;4957151;28;20101;-83
2021/04/20 01:44:37;;;;;;;1.48;1.38;;;;;;;5.42;100.00;97025.06;4940639;28;20027;-84
2021/04/20 01:47:03;;;;;;;3.35;1.40;;;;;;;5.41;100.00;97031.28;4942929;28;20031;-83
2021/04/20 01:49:29;;;;;;;0.90;0.90;;;;;;;5.27;100.00;97023.16;4943793;28;20500;-83
2021/04/20 01:51:55;;;;;;;0.80;0.80;;;;;;;5.28;100.00;97029.34;4940502;29;20110;-82
2021/04/20 01:54:20;;;;;;;1.95;1.30;;;;;;;5.27;100.00;97032.91;4941868;29;20027;-82
2021/04/20 01:56:47;;;;;;;0.45;0.45;;;;;;;5.29;100.00;97023.13;4963137;28;20042;-85
2021/04/20 01:59:14;;;;;;;1.00;0.95;;;;;;;5.17;100.00;97023.72;4968112;28;20378;-82
2021/04/20 02:01:40;;;;;;;1.50;1.15;;;;;;;5.11;100.00;97024.84;4971498;28;20035;-83
2021/04/20 02:04:08;;;;;;;2.45;1.75;;;;;;;5.10;100.00;97011.69;4986939;28;20478;-84
2021/04/20 02:06:34;;;;;;;2.50;1.33;;;;;;;5.25;100.00;97042.75;4973886;28;20565;-84
2021/04/20 02:08:59;;;;;;;1.80;1.63;;;;;;;5.33;100.00;97037.91;4964401;28;20046;-83
2021/04/20 02:11:25;;;;;;;1.33;1.20;;;;;;;5.28;100.00;97038.16;4952089;28;20576;-84
2021/04/20 02:13:51;;;;;;;1.30;1.25;;;;;;;5.29;100.00;97039.03;4946569;28;20098;-82
2021/04/20 02:16:17;;;;;;;1.98;1.33;;;;;;;5.26;100.00;97028.56;4955847;28;20011;-83
2021/04/20 02:18:45;;;;;;;0.95;0.95;;;;;;;5.11;100.00;97016.03;4972443;28;20021;-83
2021/04/20 02:21:12;;;;;;;2.45;1.65;;;;;;;5.25;100.00;97030.34;4962716;28;20034;-83
2021/04/20 02:23:40;;;;;;;7.93;2.70;;;;;;;5.30;100.00;97038.06;4961462;28;20094;-83
2021/04/20 02:26:08;;;;;;;3.17;2.10;;;;;;;5.29;100.00;97033.72;4960896;28;20098;-83
2021/04/20 02:28:34;;;;;;;1.38;1.05;;;;;;;5.32;100.00;97033.56;4960736;28;20045;-82
2021/04/20 02:31:01;;;;;;;4.65;2.20;;;;;;;5.36;100.00;97032.47;4960598;28;20035;-83
2021/04/20 02:33:28;;;;;;;1.70;1.23;;;;;;;5.26;100.00;97018.78;4946156;28;20050;-83
2021/04/20 02:35:56;;;;;;;1.60;1.48;;;;;;;5.40;100.00;97037.56;4946417;28;20403;-84
2021/04/20 02:38:21;;;;;;;2.47;1.27;;;;;;;5.39;100.00;97034.97;4961937;28;20046;-84
2021/04/20 02:40:47;;;;;;;1.38;1.27;;;;;;;5.41;100.00;97038.41;4960773;28;20027;-84
2021/04/20 02:43:13;;;;;;;2.25;1.77;;;;;;;5.37;100.00;97034.19;4961238;28;20035;-84
2021/04/20 02:45:38;;;;;;;3.22;2.30;;;;;;;5.37;100.00;97028.88;4967980;28;20541;-83
2021/04/20 02:48:05;;;;;;;2.72;1.80;;;;;;;5.39;100.00;97035.81;4986842;28;20041;-84
2021/04/20 02:50:31;;;;;;;3.40;2.33;;;;;;;5.34;100.00;97037.00;4969795;28;20034;-84
2021/04/20 02:52:57;;;;;;;1.42;1.33;;;;;;;5.35;100.00;97031.59;4978847;28;20019;-84
2021/04/20 02:55:24;;;;;;;2.38;2.17;;;;;;;5.41;100.00;97041.06;4951248;28;20119;-84
2021/04/20 02:57:52;;;;;;;3.75;2.92;;;;;;;5.37;100.00;97043.00;4953136;28;20038;-84
2021/04/20 03:00:20;;;;;;;3.58;2.25;;;;;;;5.34;100.00;97032.56;4948603;28;20121;-83
2021/04/20 03:02:47;;;;;;;3.22;2.08;;;;;;;5.41;100.00;97043.72;4959642;28;20034;-84
2021/04/20 03:05:17;;;;;;;1.67;1.58;;;;;;;5.34;100.00;97044.94;4942928;28;20131;-83
2021/04/20 03:07:44;;;;;;;1.85;1.48;;;;;;;5.36;100.00;97035.09;4943117;28;20121;-84
2021/04/20 03:10:11;;;;;;;4.03;3.63;;;;;;;5.45;100.00;97051.44;4956186;28;20513;-84
2021/04/20 03:12:38;;;;;;;5.07;2.83;;;;;;;5.35;100.00;97044.03;4979212;28;20050;-84
2021/04/20 03:15:06;;;;;;;3.63;2.88;;;;;;;5.44;100.00;97043.56;4982948;28;20084;-83
2021/04/20 03:17:32;;;;;;;4.05;2.28;;;;;;;5.45;100.00;97045.25;4983606;28;20030;-84
2021/04/20 03:19:57;;;;;;;2.95;2.25;;;;;;;5.40;100.00;97037.56;4969305;28;20134;-84
2021/04/20 03:22:24;;;;;;;4.85;4.13;;;;;;;5.40;100.00;97048.16;4987685;28;20022;-83
2021/04/20 03:25:06;;;;;;;3.58;3.28;;;;;;;5.46;100.00;97054.94;4970016;28;20034;-83
2021/04/20 03:27:43;;;;;;;1.25;1.15;;;;;;;5.46;100.00;97057.59;4998052;28;20120;-82
2021/04/20 03:30:11;;;;;;;2.78;2.25;;;;;;;5.43;100.00;97050.66;4982990;28;20018;-83
2021/04/20 03:32:38;;;;;;;5.82;3.55;;;;;;;5.38;100.00;97044.69;4998317;28;20084;-83
2021/04/20 03:35:12;;;;;;;3.20;1.95;;;;;;;5.44;100.00;97056.81;4981180;28;20088;-84
2021/04/20 03:38:34;;;;;;;5.13;3.90;;;;;;;5.36;100.00;97059.84;5002194;28;20038;-85
2021/04/20 03:41:04;;;;;;;3.60;2.45;;;;;;;5.29;100.00;97039.03;4919319;28;20020;-83
2021/04/20 03:43:31;;;;;;;17.80;3.70;;;;;;;5.33;100.00;97057.34;4998879;28;20101;-83
2021/04/20 03:46:07;;;;;;;5.05;3.60;;;;;;;5.26;100.00;97055.91;4994683;28;20029;-83
2021/04/20 03:48:40;;;;;;;3.80;2.70;;;;;;;5.22;100.00;97058.81;4996640;28;20025;-83
2021/04/20 03:51:13;;;;;;;3.25;2.30;;;;;;;5.24;100.00;97051.63;4999245;28;20022;-84
2021/04/20 03:53:39;;;;;;;2.95;2.65;;;;;;;5.36;100.00;97061.63;5011403;28;20022;-84
2021/04/20 03:56:07;;;;;;;2.63;2.42;;;;;;;5.18;100.00;97058.09;4992937;28;20120;-84
2021/04/20 03:58:33;;;;;;;4.13;2.85;;;;;;;5.24;100.00;97059.56;4994289;28;20028;-83
2021/04/20 04:01:03;;;;;;;3.33;2.42;;;;;;;5.34;100.00;97068.81;4990998;28;20029;-84
2021/04/20 04:03:32;;;;;;;2.70;2.40;;;;;;;5.32;100.00;97076.81;4987420;28;20046;-83
2021/04/20 04:05:59;;;;;;;3.88;2.80;;;;;;;5.43;100.00;97081.63;4986860;28;20038;-85
2021/04/20 04:08:46;;;;;;;3.45;2.83;;;;;;;5.30;100.00;97088.44;5008486;28;20034;-85
2021/04/20 04:11:13;;;;;;;1.92;1.83;;;;;;;5.06;100.00;97052.53;4993678;28;20065;-84
2021/04/20 04:13:41;;;;;;;2.10;1.63;;;;;;;5.15;100.00;97062.69;4994546;28;20026;-84
2021/04/20 04:16:07;;;;;;;1.48;1.38;;;;;;;5.21;100.00;97065.88;5012341;28;20018;-83
2021/04/20 04:18:35;;;;;;;10.52;2.55;;;;;;;5.10;100.00;97057.59;4991999;28;20528;-85
2021/04/20 04:21:04;;;;;;;2.35;2.15;;;;;;;5.14;100.00;97060.94;5003473;28;20113;-84
2021/04/20 04:23:50;;;;;;;3.30;1.90;;;;;;;5.28;100.00;97082.38;4994778;28;20030;-85
2021/04/20 04:26:19;;;;;;;3.88;2.72;;;;;;;5.43;100.00;97100.19;4993990;28;20054;-85
2021/04/20 04:28:48;;;;;;;1.75;1.33;;;;;;;5.49;100.00;97099.88;5012999;28;20062;-84
2021/04/20 04:31:17;;;;;;;2.50;1.55;;;;;;;5.46;100.00;97081.47;5008489;28;20121;-84
2021/04/20 04:33:43;;;;;;;6.70;3.72;;;;;;;5.52;100.00;97101.50;4990087;28;20054;-83
2021/04/20 04:36:09;;;;;;;5.03;1.98;;;;;;;5.57;100.00;97092.38;4988715;28;20022;-83
2021/04/20 04:38:37;;;;;;;2.40;2.22;;;;;;;5.65;100.00;97099.97;4991749;28;20032;-76
2021/04/20 04:41:03;;;;;;;3.97;2.90;;;;;;;5.60;100.00;97094.06;4998560;28;20026;-85
2021/04/20 04:43:29;;;;;;;3.88;2.40;;;;;;;5.55;100.00;97096.91;4996303;28;20030;-83
2021/04/20 04:45:58;;;;;;;7.88;3.58;;;;;;;5.63;100.00;97093.91;4995486;28;20034;-84
2021/04/20 04:48:25;;;;;;;13.27;5.30;;;;;;;5.57;100.00;97100.34;4980704;28;20037;-83
2021/04/20 04:50:52;;;;;;;5.53;3.65;;;;;;;5.63;100.00;97105.34;4969408;28;20030;-85
2021/04/20 04:53:18;;;;;;;4.88;3.58;;;;;;;5.52;100.00;97093.56;4981532;28;20055;-84
2021/04/20 04:55:44;;;;;;;4.18;3.20;;;;;;;5.69;100.00;97097.09;4980661;28;20025;-85
2021/04/20 04:58:10;;;;;;;3.55;3.08;;;;;;;5.79;100.00;97097.47;4977244;28;20072;-84
2021/04/20 05:00:35;;;;;;;4.93;2.95;;;;;;;5.83;100.00;97099.91;4996744;28;20030;-82
2021/04/20 05:03:01;;;;;;;4.15;2.80;;;;;;;5.93;100.00;97103.88;4995673;28;20034;-85
2021/04/20 05:05:28;;;;;;;1.90;1.63;;;;;;;5.86;100.00;97101.59;4979152;28;20599;-85
2021/04/20 05:07:59;;;;;;;4.03;2.33;;;;;;;5.95;100.00;97115.25;4979146;28;20022;-84
2021/04/20 05:10:24;;;;;;;3.47;2.63;;;;;;;6.09;100.00;97108.41;4977311;28;20085;-82
2021/04/20 05:12:51;;;;;;;3.92;3.42;;;;;;;6.28;100.00;97107.34;4949347;28;20473;-83
2021/04/20 05:15:17;;;;;;;5.43;3.60;;;;;;;6.39;100.00;97106.81;4966725;28;20092;-83
2021/04/20 05:17:43;;;;;;;1.70;1.50;;;;;;;6.49;100.00;97116.00;5008213;28;20121;-83
2021/04/20 05:20:16;;;;;;;1.75;1.65;;;;;;;6.44;100.00;97124.22;4976298;28;20490;-83
2021/04/20 05:22:43;;;;;;;7.13;4.18;;;;;;;6.50;100.00;97117.72;4969730;28;20031;-84
2021/04/20 05:25:11;;;;;;;2.92;2.28;;;;;;;6.48;100.00;97125.78;4981205;28;20030;-84
2021/04/20 05:27:37;;;;;;;12.60;5.63;;;;;;;6.40;100.00;97124.44;4975595;28;20034;-85
2021/04/20 05:30:05;;;;;;;11.38;5.82;;;;;;;6.40;100.00;97108.50;5007911;28;20093;-84
2021/04/20 05:32:41;;;;;;;10.38;6.68;;;;;;;6.45;100.00;97117.97;4959771;28;20410;-85
2021/04/20 05:35:08;;;;;;;6.78;5.03;;;;;;;6.51;100.00;97117.66;4979757;28;20406;-84
2021/04/20 05:37:39;;;;;;;13.30;4.10;;;;;;;6.69;100.00;97112.28;4966120;28;20494;-85
2021/04/20 05:40:14;;;;;;;7.43;5.03;;;;;;;6.48;100.00;97131.09;4963037;28;20040;-83
2021/04/20 05:42:41;;;;;;;4.40;3.78;;;;;;;6.69;100.00;97118.47;4966318;28;20022;-84
2021/04/20 05:45:08;;;;;;;3.60;3.15;;;;;;;6.87;100.00;97117.47;5000478;28;20053;-83
2021/04/20 05:47:38;;;;;;;9.07;6.13;;;;;;;7.34;100.00;97129.94;4961668;28;20030;-83
2021/04/20 05:50:05;;;;;;;8.18;5.32;;;;;;;7.53;100.00;97127.97;4969771;28;20569;-83
2021/04/20 05:52:42;;;;;;;3.85;3.47;;;;;;;7.81;100.00;97137.91;4982267;28;20040;-84
2021/04/20 05:55:08;;;;;;;3.47;3.17;;;;;;;8.05;98.31;97141.81;4973097;28;20034;-83
2021/04/20 05:57:34;;;;;;;8.30;4.00;;;;;;;8.21;95.22;97142.63;4993179;28;20033;-82
2021/04/20 06:00:00;;;;;;;7.38;4.07;;;;;;;8.52;93.54;97142.53;4977867;28;20066;-85
2021/04/20 06:02:30;;;;;;;12.00;4.03;;;;;;;9.19;90.79;97139.25;4985781;28;20478;-83
2021/04/20 06:11:40;;;;;;;4.35;3.10;;;;;;;13.11;69.13;97118.34;4947174;29;20058;-86
2021/04/20 06:24:26;;;;;;;;;;;;;;;;;;;;;
2021/04/20 06:27:43;;;;;;;17.70;4.22;;;;;;;17.02;53.44;97160.53;4991923;28;20046;-84
2021/04/20 06:31:08;;;;;;;;;;;;;;;;;;;;;
2021/04/20 06:37:08;;;;;;;;;;;;;;;;;;;;;
2021/04/20 06:46:37;;;;;;;7.50;2.70;;;;;;;19.11;45.73;97164.16;5014489;28;20366;-84
2021/04/20 06:49:05;;;;;;;3.72;2.70;;;;;;;20.07;43.13;97168.53;4980067;28;20555;-85
2021/04/20 06:51:37;;;;;;;1.70;1.20;;;;;;;19.10;45.36;97170.63;4979279;28;20113;-85
2021/04/20 06:54:25;;;;;;;1.60;1.50;;;;;;;20.72;42.34;97166.91;4993331;28;20061;-85
2021/04/20 06:57:04;;;;;;;3.53;2.00;;;;;;;19.87;43.73;97176.06;4973677;28;20093;-85
2021/04/20 06:59:37;;;;;;;3.47;2.03;;;;;;;18.28;48.21;97176.19;4980300;28;20041;-84
2021/04/20 07:02:14;;;;;;;5.10;2.45;;;;;;;16.84;51.64;97172.19;5006205;28;20030;-84
2021/04/20 07:04:50;;;;;;;5.20;2.25;;;;;;;15.67;54.98;97156.75;4996316;28;20072;-83
2021/04/20 07:07:49;;;;;;;3.47;1.80;;;;;;;14.90;58.95;97162.69;4974299;28;20101;-82
2021/04/20 07:10:25;;;;;;;1.80;1.40;;;;;;;14.86;60.33;97147.78;5023617;28;20485;-82
2021/04/20 07:12:54;;;;;;;4.18;2.47;;;;;;;14.79;60.40;97155.53;4979821;28;20077;-82
2021/04/20 07:15:21;;;;;;;2.72;2.42;;;;;;;14.61;61.35;97163.31;4987362;28;20397;-83
2021/04/20 07:18:05;;;;;;;2.72;2.35;;;;;;;14.10;65.16;97162.22;4979401;28;20030;-84
2021/04/20 07:20:36;;;;;;;4.18;2.70;;;;;;;13.45;66.18;97154.97;4995940;28;20030;-84
2021/04/20 07:23:38;;;;;;;3.97;2.22;;;;;;;13.95;65.08;97164.34;4985231;28;20025;-84
2021/04/20 07:26:22;;;;;;;4.13;3.28;;;;;;;14.85;64.16;97162.22;4982382;28;20430;-83
2021/04/20 07:29:06;;;;;;;5.95;4.15;;;;;;;14.89;62.08;97163.69;4987687;28;20029;-84
2021/04/20 07:31:43;;;;;;;4.22;3.03;;;;;;;14.68;62.12;97162.78;4979749;28;20048;-85
2021/04/20 07:34:08;;;;;;;4.18;3.08;;;;;;;15.49;59.56;97169.19;5008803;28;20049;-83
2021/04/20 07:36:51;;;;;;;26.45;7.38;;;;;;;17.32;53.72;97168.44;4995847;28;20030;-84
2021/04/20 07:39:22;;;;;;;4.00;3.45;;;;;;;17.32;52.73;97167.56;4993060;28;20473;-84
2021/04/20 07:42:16;;;;;;;3.22;2.65;;;;;;;17.72;50.61;97172.75;4977623;28;20390;-84
2021/04/20 07:44:53;;;;;;;8.15;4.65;;;;;;;18.35;51.11;97184.56;4992100;28;20030;-84
2021/04/20 07:47:21;;;;;;;3.55;2.45;;;;;;;18.36;47.81;97159.19;4992340;28;20181;-84
2021/04/20 07:50:00;;;;;;;4.00;2.53;;;;;;;18.98;45.79;97169.13;4993570;28;20026;-84
2021/04/20 07:52:32;;;;;;;5.80;2.85;;;;;;;19.03;46.35;97174.09;4989758;28;20045;-84
2021/04/20 07:55:03;;;;;;;3.42;1.70;;;;;;;19.57;44.69;97176.56;4995082;28;20098;-84
2021/04/20 07:57:34;;;;;;;13.00;6.13;;;;;;;19.30;46.55;97168.56;4992191;28;20045;-84
2021/04/20 08:00:14;;;;;;;4.20;2.58;;;;;;;17.44;47.80;97176.41;4978402;28;20038;-83
2021/04/20 08:02:52;;;;;;;8.60;3.53;;;;;;;17.31;51.34;97176.72;4995598;28;20057;-84
2021/04/20 08:05:42;;;;;;;5.70;3.30;;;;;;;16.88;50.45;97179.03;5012848;28;20509;-85
2021/04/20 08:08:15;;;;;;;8.55;4.53;;;;;;;17.11;51.38;97175.00;4992289;28;20486;-83
2021/04/20 08:10:40;;;;;;;8.20;4.03;;;;;;;17.41;52.18;97185.63;4983430;28;20029;-84
2021/04/20 08:13:06;;;;;;;5.32;3.85;;;;;;;18.13;50.21;97193.09;4991507;28;20105;-85
2021/04/20 08:15:40;;;;;;;1.58;1.42;;;;;;;18.78;45.39;97184.72;4974990;28;20394;-80
2021/04/20 08:18:21;;;;;;;9.07;4.43;;;;;;;20.02;43.21;97187.19;4957447;28;20030;-80
2021/04/20 08:20:48;;;;;;;5.07;3.58;;;;;;;20.03;42.89;97178.88;4990759;28;20488;-80
2021/04/20 08:23:14;;;;;;;17.45;8.07;;;;;;;20.10;44.11;97186.38;4974678;28;20022;-80
2021/04/20 08:25:44;;;;;;;6.40;4.03;;;;;;;21.01;41.73;97182.75;4958603;28;20035;-80
2021/04/20 08:28:25;;;;;;;59.75;31.40;;;;;;;20.63;40.12;97170.63;4958364;28;20034;-81
2021/04/20 08:31:05;;;;;;;13.32;7.30;;;;;;;20.24;40.96;97183.06;4974129;28;20053;-80
2021/04/20 08:33:35;;;;;;;10.25;5.10;;;;;;;19.78;38.77;97171.59;4958413;28;20446;-80
2021/04/20 08:36:06;;;;;;;19.27;9.20;;;;;;;19.20;40.00;97176.78;4958643;28;20849;-80
2021/04/20 08:38:53;;;;;;;20.35;10.75;;;;;;;18.24;41.71;97172.06;4974758;28;20188;-80
2021/04/20 08:41:34;;;;;;;5.53;2.90;;;;;;;17.52;44.01;97182.78;4930054;28;20116;-80
2021/04/20 08:44:09;;;;;;;1.75;1.52;;;;;;;16.74;46.02;97172.19;4958249;28;20034;-80
2021/04/20 08:46:52;;;;;;;1.17;1.17;;;;;;;16.58;46.83;97174.63;4974580;28;20034;-80
2021/04/20 08:49:22;;;;;;;;;;;;;;;16.23;46.68;97177.81;4992323;28;20457;-80
2021/04/20 08:51:53;;;;;;;1.25;0.88;;;;;;;16.70;47.24;97176.19;4998956;28;19914;-80
2021/04/20 08:54:26;;;;;;;1.67;1.33;;;;;;;17.08;47.27;97186.13;4987651;28;20062;-80
2021/04/20 08:57:10;;;;;;;5.63;2.83;;;;;;;17.00;45.29;97183.28;5003843;28;20101;-79
2021/04/20 08:59:52;;;;;;;1.90;1.35;;;;;;;16.22;45.21;97176.09;4974536;28;20089;-80
2021/04/20 09:02:22;;;;;;;;;;;;;;;16.39;44.93;97177.28;4975322;28;20027;-79
2021/04/20 09:05:22;;;;;;;1.85;1.20;;;;;;;16.12;44.36;97177.91;4958329;28;19910;-80
2021/04/20 09:07:50;;;;;;;2.05;1.27;;;;;;;15.90;45.35;97175.44;4974710;28;20034;-80
2021/04/20 09:10:19;;;;;;;0.93;0.82;;;;;;;16.31;44.33;97171.69;4991678;28;20474;-80
2021/04/20 09:12:46;;;;;;;3.50;2.08;;;;;;;16.83;44.41;97168.66;4986614;28;20048;-80
2021/04/20 09:15:13;;;;;;;2.08;1.35;;;;;;;16.80;45.30;97174.34;4993591;28;20477;-80
2021/04/20 09:17:50;;;;;;;1.60;0.63;;;;;;;16.60;41.47;97162.69;4971283;28;20113;-80
2021/04/20 09:20:25;;;;;;;3.05;1.80;;;;;;;16.42;42.75;97166.19;4979810;28;20018;-80
2021/04/20 09:22:57;;;;;;;1.02;1.02;;;;;;;16.93;42.07;97161.41;4981976;28;20073;-80
2021/04/20 09:25:47;;;;;;;5.85;3.03;;;;;;;17.23;41.67;97165.75;5013955;28;20029;-81
2021/04/20 09:28:24;;;;;;;1.25;1.15;;;;;;;16.72;41.92;97149.91;4981038;28;20064;-80
2021/04/20 09:30:55;;;;;;;1.00;0.75;;;;;;;16.39;42.21;97151.13;4997124;28;20477;-80
2021/04/20 09:33:26;;;;;;;2.17;1.05;;;;;;;16.61;41.03;97158.16;4987000;28;20036;-80
2021/04/20 09:35:52;;;;;;;1.40;0.95;;;;;;;16.01;44.76;97168.09;4997096;28;20029;-80
2021/04/20 09:38:18;;;;;;;1.45;0.90;;;;;;;15.87;43.75;97167.63;4997693;28;20030;-80
2021/04/20 09:40:47;;;;;;;2.08;1.88;;;;;;;15.97;44.83;97168.50;4982197;28;20022;-80
2021/04/20 09:43:22;;;;;;;2.00;0.88;;;;;;;15.92;44.06;97158.13;4988390;28;20071;-80
2021/04/20 09:46:01;;;;;;;1.60;1.05;;;;;;;15.91;43.71;97160.94;4996678;28;20087;-80
2021/04/20 09:48:53;;;;;;;1.77;1.23;;;;;;;15.81;44.73;97160.09;4996054;28;20410;-78
2021/04/20 09:51:22;;;;;;;3.00;1.23;;;;;;;16.11;41.54;97146.53;5004388;28;20645;-84
2021/04/20 09:54:04;;;;;;;1.85;1.20;;;;;;;15.24;43.99;97155.25;4992686;28;20034;-84
2021/04/20 09:56:46;;;;;;;2.15;1.58;;;;;;;15.72;42.48;97156.34;4990799;28;20014;-83
2021/04/20 09:59:25;;;;;;;1.85;1.13;;;;;;;15.89;42.30;97160.25;5005436;28;20604;-83
2021/04/20 10:02:04;;;;;;;3.05;0.95;;;;;;;15.88;40.25;97145.91;4982874;28;20069;-84
2021/04/20 10:04:38;;;;;;;1.60;0.90;;;;;;;16.14;40.80;97159.75;4983155;28;20030;-84
2021/04/20 10:07:07;;;;;;;0.80;0.80;;;;;;;16.60;40.13;97153.72;5012865;28;20072;-80
2021/04/20 10:09:52;;;;;;;0.90;0.90;;;;;;;16.96;39.97;97152.13;4994765;28;20496;-79
2021/04/20 10:12:43;;;;;;;23.02;13.70;;;;;;;17.00;39.98;97156.28;4988212;28;20458;-80
2021/04/20 10:15:15;;;;;;;18.08;11.50;;;;;;;16.80;38.90;97153.56;5009738;28;20043;-80
2021/04/20 10:18:02;;;;;;;28.75;13.95;;;;;;;15.79;41.93;97151.25;5004098;28;20030;-80
2021/04/20 10:20:45;;;;;;;23.88;15.77;;;;;;;15.52;42.41;97160.81;4987953;28;20030;-81
2021/04/20 10:24:08;;;;;;;24.00;13.80;;;;;;;15.13;44.73;97153.50;4973251;28;20025;-80
2021/04/20 10:27:04;;;;;;;19.58;13.48;;;;;;;14.85;44.47;97155.00;4937135;29;20031;-81
2021/04/20 10:29:43;;;;;;;26.27;13.60;;;;;;;14.71;44.57;97149.91;4921294;29;20035;-81
2021/04/20 10:32:34;;;;;;;22.60;14.65;;;;;;;14.77;44.62;97148.53;4971905;28;20042;-79
2021/04/20 10:35:01;;;;;;;16.70;11.05;;;;;;;14.60;43.80;97129.31;4995708;28;20188;-80
2021/04/20 10:37:34;;;;;;;24.65;14.27;;;;;;;14.99;44.43;97146.59;4975688;28;20037;-84
2021/04/20 10:40:01;;;;;;;18.38;12.20;;;;;;;15.33;42.67;97143.66;4974283;28;20040;-83
2021/04/20 10:42:31;;;;;;;28.73;14.93;;;;;;;15.44;43.75;97146.28;5002830;28;20026;-83
2021/04/20 10:44:58;;;;;;;25.13;14.52;;;;;;;15.57;42.00;97141.53;4981062;28;20026;-83
2021/04/20 10:47:25;;;;;;;20.52;14.82;;;;;;;15.89;42.86;97154.84;4982308;28;20409;-84
2021/04/20 10:49:55;;;;;;;20.58;13.98;;;;;;;15.94;42.88;97136.41;4981184;28;20557;-85
2021/04/20 10:52:28;;;;;;;26.40;17.13;;;;;;;16.03;43.91;97149.06;4976937;28;20033;-84
2021/04/20 10:54:57;;;;;;;22.90;16.20;;;;;;;15.93;43.78;97137.41;5000828;28;20025;-84
2021/04/20 10:57:23;;;;;;;29.13;17.15;;;;;;;15.42;45.87;97150.94;4984559;28;20030;-83
2021/04/20 10:59:51;;;;;;;24.38;16.75;;;;;;;15.10;45.65;97149.19;4984237;28;20036;-84
2021/04/20 11:02:19;;;;;;;21.92;15.85;;;;;;;15.04;44.85;97159.66;4973021;28;20493;-84
2021/04/20 11:04:46;;;;;;;23.35;15.38;;;;;;;14.55;45.44;97150.34;4980655;28;20057;-84
2021/04/20 11:07:19;;;;;;;22.17;15.27;;;;;;;14.93;45.30;97154.34;4988547;28;20509;-84
2021/04/20 11:09:46;;;;;;;22.65;14.65;;;;;;;14.87;46.56;97152.16;4980440;28;20022;-85
2021/04/20 11:12:14;;;;;;;36.92;18.27;;;;;;;15.28;46.29;97151.31;4978358;28;20051;-84
2021/04/20 11:14:48;;;;;;;21.05;14.43;;;;;;;15.27;44.98;97160.34;4992495;28;20026;-84
2021/04/20 11:17:43;;;;;;;23.27;14.68;;;;;;;15.16;45.11;97147.84;5008958;28;20022;-85
2021/04/20 11:20:33;;;;;;;28.30;18.95;;;;;;;15.50;45.57;97157.41;4972336;28;20042;-85
2021/04/20 11:23:19;;;;;;;23.17;15.23;;;;;;;15.34;43.62;97150.75;4966339;28;20097;-86
2021/04/20 11:25:53;;;;;;;21.98;13.55;;;;;;;15.49;42.76;97160.22;4958149;28;20418;-86
2021/04/20 11:28:39;;;;;;;14.50;10.88;;;;;;;15.55;41.53;97155.16;4974679;28;20043;-85
2021/04/20 11:31:11;;;;;;;18.17;13.30;;;;;;;15.68;43.10;97158.47;4982977;28;20494;-81
2021/04/20 11:33:41;;;;;;;18.38;12.57;;;;;;;15.66;42.27;97157.75;4973217;28;20029;-80
2021/04/20 11:36:23;;;;;;;17.92;11.65;;;;;;;15.37;42.36;97154.06;4965648;28;20057;-79
2021/04/20 11:38:50;;;;;;;;;;;;;;;15.34;43.06;97162.41;4974775;28;20041;-79
2021/04/20 11:41:16;;;;;;;18.17;12.32;;;;;;;15.45;42.94;97156.91;4991108;28;20000;-78
2021/04/20 11:43:44;;;;;;;24.55;13.25;;;;;;;16.36;41.28;97145.16;4957050;28;20062;-79
2021/04/20 11:46:16;;;;;;;18.45;13.00;;;;;;;16.73;39.35;97144.31;4964605;28;20177;-84
2021/04/20 11:48:45;;;;;;;19.00;13.55;;;;;;;16.09;41.78;97143.09;4957168;28;20418;-83
2021/04/20 11:51:11;;;;;;;25.30;16.20;;;;;;;15.88;42.69;97145.91;4968635;28;20034;-83
2021/04/20 11:53:41;;;;;;;26.95;17.50;;;;;;;16.54;40.08;97124.56;4958736;28;20041;-83
2021/04/20 11:56:07;;;;;;;42.38;26.63;;;;;;;17.09;40.84;97137.34;4985321;28;20116;-83
2021/04/20 11:58:41;;;;;;;29.13;21.35;;;;;;;17.75;38.93;97140.84;4959178;28;20034;-83
2021/04/20 12:01:09;;;;;;;33.47;15.65;;;;;;;17.84;38.48;97137.25;4968759;28;20026;-84
2021/04/20 12:03:35;;;;;;;22.88;18.35;;;;;;;17.40;39.34;97139.81;4959959;28;20113;-85
2021/04/20 12:06:01;;;;;;;22.02;14.35;;;;;;;17.10;40.71;97135.50;4964326;28;20041;-84
2021/04/20 12:08:36;;;;;;;15.80;12.75;;;;;;;17.63;39.53;97133.91;4960494;28;20034;-85
2021/04/20 12:11:06;;;;;;;20.00;14.38;;;;;;;18.37;40.19;97126.53;4988293;28;20168;-85
2021/04/20 12:13:34;;;;;;;20.27;11.25;;;;;;;17.88;37.75;97118.84;5010708;28;20089;-85
2021/04/20 12:16:08;;;;;;;14.98;10.73;;;;;;;17.73;37.98;97118.50;4978799;28;20049;-84
2021/04/20 12:18:34;;;;;;;15.90;12.00;;;;;;;18.66;35.92;97110.09;4984222;28;20096;-85
2021/04/20 12:21:08;;;;;;;16.85;11.65;;;;;;;18.72;36.06;97112.19;4994981;28;20021;-85
2021/04/20 12:23:39;;;;;;;13.82;10.50;;;;;;;19.42;35.34;97099.50;4993405;28;20028;-86